This is the latest recevied weather packets stored in our database for station/object DK6GC-10. If no packets are shown the sender has not sent any weather packets the latest 10 day(s).
| Time | Temp. | Humidity | Pressure | Rain* | Wind** | Luminosity | Snow |
|---|---|---|---|---|---|---|---|
| 1788009319 | 26.11° C | 44% | 1016.7 hPa | - | - | - | - |
| 1788008419 | 26.67° C | 44% | 1016.8 hPa | - | - | - | - |
| 1788007518 | 25.56° C | 46% | 1017 hPa | - | - | - | - |
| 1788006618 | 25.56° C | 45% | 1017 hPa | - | - | - | - |
| 1788005717 | 25° C | 46% | 1017 hPa | - | - | - | - |
| 1788004820 | 27.22° C | 44% | 1017.1 hPa | - | - | - | - |
| 1788003920 | 27.22° C | 44% | 1017.1 hPa | - | - | - | - |
| 1788003019 | 26.11° C | 46% | 1017.2 hPa | - | - | - | - |
| 1788002119 | 26.11° C | 45% | 1017.4 hPa | - | - | - | - |
| 1788001219 | 25° C | 49% | 1017.6 hPa | - | - | - | - |
| 1788000319 | 24.44° C | 49% | 1017.7 hPa | - | - | - | - |
| 1787999419 | 25° C | 47% | 1017.7 hPa | - | - | - | - |
| 1787998519 | 25° C | 48% | 1017.8 hPa | - | - | - | - |
| 1787997619 | 25.56° C | 49% | 1017.8 hPa | - | - | - | - |
| 1787996718 | 24.44° C | 50% | 1018 hPa | - | - | - | - |
| 1787995818 | 25° C | 50% | 1018.2 hPa | - | - | - | - |
| 1787994918 | 24.44° C | 53% | 1018.1 hPa | - | - | - | - |
| 1787994018 | 23.89° C | 56% | 1018.2 hPa | - | - | - | - |
| 1787993118 | 23.33° C | 57% | 1018.3 hPa | - | - | - | - |
| 1787992217 | 22.78° C | 58% | 1018.2 hPa | - | - | - | - |
| 1787991317 | 22.78° C | 60% | 1018.3 hPa | - | - | - | - |
| 1787990417 | 22.22° C | 60% | 1018.3 hPa | - | - | - | - |
| 1787989517 | 21.67° C | 61% | 1018.5 hPa | - | - | - | - |
| 1787988617 | 21.67° C | 65% | 1018.5 hPa | - | - | - | - |
| 1787987717 | 21.11° C | 64% | 1018.4 hPa | - | - | - | - |
* Rain since midnight (hover to see other rain measurements)
** Current wind speed in m/s (hover to see current wind gust speed)